Time;durP1;ratioP1;P1;durP2;ratioP2;P2;SDS_P1;SDS_P2;PMS_P1;PMS_P2;Temp;Humidity;BMP_temperature;BMP_pressure;BME280_temperature;BME280_humidity;BME280_pressure;Samples;Min_cycle;Max_cycle;Signal;HPM_P1;HPM_P2
2022/01/24 00:01:19;;;;;;;8.43;5.65;;;5.20;99.90;;;;;;4952761;29;20050;-78
2022/01/24 00:03:45;;;;;;;8.93;6.22;;;5.20;99.90;;;;;;4952606;29;20470;-78
2022/01/24 00:06:14;;;;;;;9.55;5.53;;;5.20;99.90;;;;;;4952693;29;20047;-84
2022/01/24 00:08:40;;;;;;;8.63;6.10;;;5.10;99.90;;;;;;4952494;29;20137;-81
2022/01/24 00:11:10;;;;;;;7.93;5.38;;;5.20;99.90;;;;;;4952239;29;20078;-79
2022/01/24 00:27:10;;;;;;;8.95;5.53;;;5.80;99.90;;;;;;4911383;29;20060;-78
2022/01/24 00:29:35;;;;;;;8.52;5.57;;;5.10;99.90;;;;;;4911791;29;20470;-84
2022/01/24 00:32:01;;;;;;;8.40;4.78;;;5.10;99.90;;;;;;4911502;29;20157;-84
2022/01/24 00:34:27;;;;;;;7.80;5.63;;;5.10;99.90;;;;;;4911334;29;20044;-78
2022/01/24 00:36:53;;;;;;;8.82;5.32;;;5.10;99.90;;;;;;4911503;29;20063;-79
2022/01/24 00:39:20;;;;;;;7.78;5.00;;;5.10;99.90;;;;;;4911133;29;20111;-79
2022/01/24 00:41:59;;;;;;;9.20;5.05;;;5.10;99.90;;;;;;4922871;29;20049;-86
2022/01/24 00:47:14;;;;;;;7.80;5.45;;;5.10;99.90;;;;;;4930190;29;20098;-80
2022/01/24 00:52:58;;;;;;;7.60;4.82;;;5.10;99.90;;;;;;4929988;29;20519;-82
2022/01/24 00:55:20;;;;;;;7.35;4.88;;;5.10;99.90;;;;;;4951713;29;20066;-82
2022/01/24 00:57:46;;;;;;;10.00;5.22;;;5.00;99.90;;;;;;4934402;29;20443;-86
2022/01/24 01:00:12;;;;;;;8.93;4.72;;;5.10;99.90;;;;;;4952127;29;20399;-81
2022/01/24 01:02:38;;;;;;;8.00;4.40;;;5.10;99.90;;;;;;4951850;29;20051;-83
2022/01/24 01:07:41;;;;;;;6.38;4.68;;;5.00;99.90;;;;;;4955559;29;20059;-83
2022/01/24 01:18:21;;;;;;;7.20;4.30;;;5.00;99.90;;;;;;4955498;29;20086;-82
2022/01/24 01:23:15;;;;;;;7.90;4.35;;;4.90;99.90;;;;;;4938227;29;20129;-82
2022/01/24 01:25:42;;;;;;;6.80;4.55;;;5.00;99.90;;;;;;4955090;29;20398;-79
2022/01/24 01:28:08;;;;;;;8.13;4.80;;;5.00;99.90;;;;;;4955108;29;20067;-81
2022/01/24 01:30:40;;;;;;;5.88;4.13;;;4.90;99.90;;;;;;4955350;29;20043;-79
2022/01/24 01:33:18;;;;;;;7.10;4.63;;;4.90;99.90;;;;;;4954898;28;20507;-78
2022/01/24 01:57:18;;;;;;;7.38;4.15;;;4.90;99.90;;;;;;4937424;29;20070;-82
2022/01/24 01:59:44;;;;;;;6.97;4.50;;;4.80;99.90;;;;;;4954966;29;20132;-78
2022/01/24 02:02:11;;;;;;;7.18;4.35;;;4.80;99.90;;;;;;4954695;29;20569;-78
2022/01/24 02:04:37;;;;;;;7.88;4.63;;;4.80;99.90;;;;;;4954923;29;20038;-80
2022/01/24 02:07:03;;;;;;;7.28;4.65;;;5.30;99.90;;;;;;4954884;29;20043;-82
2022/01/24 02:09:33;;;;;;;8.48;4.68;;;4.80;99.90;;;;;;4953600;29;20094;-81
2022/01/24 02:11:59;;;;;;;8.77;4.53;;;4.80;99.90;;;;;;4954638;29;20047;-79
2022/01/24 02:14:32;;;;;;;6.55;4.38;;;4.80;99.90;;;;;;4954905;29;20109;-79
2022/01/24 02:17:06;;;;;;;6.55;4.68;;;4.80;99.90;;;;;;4954330;28;20047;-78
2022/01/24 02:19:49;;;;;;;8.55;4.82;;;4.80;99.90;;;;;;4954672;29;20047;-79
2022/01/24 02:24:58;;;;;;;;;;;4.70;99.90;;;;;;4954943;29;20129;-85
2022/01/24 02:27:27;;;;;;;8.38;4.82;;;4.70;99.90;;;;;;4954542;29;19926;-78
2022/01/24 02:30:09;;;;;;;5.93;4.50;;;5.50;99.90;;;;;;4954345;29;20569;-78
2022/01/24 02:32:39;;;;;;;7.45;5.07;;;4.70;99.90;;;;;;4954461;29;20087;-83
2022/01/24 02:35:06;;;;;;;9.25;4.88;;;4.70;99.90;;;;;;4954658;29;20064;-82
2022/01/24 02:37:32;;;;;;;7.28;5.00;;;4.70;99.90;;;;;;4954446;29;20497;-82
2022/01/24 02:51:02;;;;;;;7.60;5.13;;;4.70;99.90;;;;;;4954351;29;20051;-81
2022/01/24 02:53:30;;;;;;;7.65;4.93;;;4.70;99.90;;;;;;4954344;29;20047;-82
2022/01/24 02:55:56;;;;;;;7.25;4.68;;;4.70;99.90;;;;;;4954023;29;20516;-79
2022/01/24 02:58:22;;;;;;;8.45;5.28;;;4.70;99.90;;;;;;4953669;29;20055;-79
2022/01/24 03:00:49;;;;;;;8.30;5.05;;;4.60;99.90;;;;;;4936174;29;20049;-78
2022/01/24 03:03:15;;;;;;;9.07;4.78;;;4.60;99.90;;;;;;4953420;29;20047;-78
2022/01/24 03:05:41;;;;;;;9.63;5.32;;;4.90;99.90;;;;;;4953829;29;20047;-79
2022/01/24 03:08:07;;;;;;;8.73;5.43;;;4.60;99.90;;;;;;4952251;29;20051;-83
2022/01/24 03:10:40;;;;;;;10.27;5.90;;;4.60;99.90;;;;;;4953770;29;20027;-82
2022/01/24 03:15:52;;;;;;;6.60;4.55;;;4.60;99.90;;;;;;4953942;29;20055;-82
2022/01/24 03:18:19;;;;;;;8.00;5.20;;;5.50;99.90;;;;;;4953704;29;20043;-79
2022/01/24 03:20:45;;;;;;;7.82;5.25;;;4.60;99.90;;;;;;4953297;29;20535;-75
2022/01/24 03:23:12;;;;;;;8.52;6.00;;;4.60;99.90;;;;;;4953677;29;20083;-79
2022/01/24 03:25:38;;;;;;;9.80;6.43;;;4.60;99.90;;;;;;4952842;29;20043;-82
2022/01/24 03:28:04;;;;;;;8.45;5.85;;;4.60;99.90;;;;;;4951968;28;20043;-83
2022/01/24 03:30:32;;;;;;;10.23;6.75;;;4.60;99.90;;;;;;4952777;29;20488;-78
2022/01/24 03:32:58;;;;;;;10.55;6.10;;;4.60;99.90;;;;;;4952710;28;20059;-79
2022/01/24 03:35:24;;;;;;;11.70;6.53;;;4.60;99.90;;;;;;4952307;29;20062;-79
2022/01/24 03:37:49;;;;;;;9.77;6.55;;;4.60;99.90;;;;;;4952604;29;20050;-78
2022/01/24 03:40:15;;;;;;;10.98;6.47;;;4.60;99.90;;;;;;4935919;29;20098;-78
2022/01/24 03:42:41;;;;;;;11.50;7.13;;;4.60;99.90;;;;;;4952047;29;20057;-78
2022/01/24 03:45:09;;;;;;;11.07;6.65;;;4.60;99.90;;;;;;4952635;29;20138;-80
2022/01/24 03:50:02;;;;;;;11.05;6.35;;;5.50;99.90;;;;;;4952350;29;20134;-86
2022/01/24 03:52:31;;;;;;;10.48;7.07;;;4.60;99.90;;;;;;4952416;29;20074;-86
2022/01/24 03:54:58;;;;;;;14.80;7.20;;;4.60;99.90;;;;;;4952494;29;20042;-79
2022/01/24 03:57:25;;;;;;;11.07;7.53;;;5.20;99.90;;;;;;4952765;29;20556;-80
2022/01/24 03:59:51;;;;;;;11.10;7.05;;;4.60;99.90;;;;;;4952502;29;20458;-77
2022/01/24 04:02:19;;;;;;;12.02;7.45;;;4.60;99.90;;;;;;4952080;29;20102;-76
2022/01/24 04:04:45;;;;;;;13.05;8.52;;;5.30;99.90;;;;;;4952613;29;20090;-79
2022/01/24 04:07:11;;;;;;;11.27;7.68;;;4.60;99.90;;;;;;4952481;29;20094;-81
2022/01/24 04:09:39;;;;;;;14.20;8.27;;;5.10;99.90;;;;;;4952525;29;20138;-79
2022/01/24 04:12:05;;;;;;;13.07;8.73;;;4.60;99.90;;;;;;4952142;29;20495;-78
2022/01/24 04:14:53;;;;;;;13.60;8.60;;;4.60;99.90;;;;;;4952375;29;20122;-76
2022/01/24 04:17:22;;;;;;;14.07;9.10;;;4.60;99.90;;;;;;4937347;29;20039;-86
2022/01/24 04:22:35;;;;;;;15.27;9.63;;;4.60;99.90;;;;;;4951693;29;20051;-81
2022/01/24 04:25:03;;;;;;;19.55;9.77;;;4.60;99.90;;;;;;4951008;29;20050;-85
2022/01/24 04:27:30;;;;;;;18.75;10.23;;;4.60;99.90;;;;;;4951750;29;20558;-86
2022/01/24 04:29:56;;;;;;;17.38;10.55;;;4.50;99.90;;;;;;4951565;29;20126;-78
2022/01/24 04:32:22;;;;;;;14.00;9.27;;;4.60;99.90;;;;;;4951726;29;20246;-85
2022/01/24 04:34:49;;;;;;;15.93;10.40;;;4.60;99.90;;;;;;4952259;29;20058;-81
2022/01/24 04:37:15;;;;;;;16.35;9.70;;;4.60;99.90;;;;;;4952110;29;20509;-85
2022/01/24 04:39:43;;;;;;;16.33;10.73;;;4.60;99.90;;;;;;4951457;28;20039;-83
2022/01/24 04:42:14;;;;;;;17.40;11.10;;;4.50;99.90;;;;;;4950526;29;20042;-78
2022/01/24 04:55:10;;;;;;;15.90;9.95;;;4.50;99.90;;;;;;4951875;29;21056;-78
2022/01/24 04:57:36;;;;;;;15.35;9.95;;;4.60;99.90;;;;;;4952257;29;20051;-77
2022/01/24 05:00:05;;;;;;;16.80;10.85;;;4.50;99.90;;;;;;4951892;29;20047;-80
2022/01/24 05:02:31;;;;;;;17.42;10.82;;;4.50;99.90;;;;;;4951532;29;20058;-84
2022/01/24 05:04:57;;;;;;;16.63;10.70;;;4.50;99.90;;;;;;4951756;29;20051;-78
2022/01/24 05:07:23;;;;;;;16.80;10.80;;;4.50;99.90;;;;;;4950610;29;20058;-79
2022/01/24 05:10:00;;;;;;;17.65;10.85;;;4.50;99.90;;;;;;4951741;29;20562;-86
2022/01/24 05:25:55;;;;;;;16.42;10.40;;;4.50;99.90;;;;;;4907783;29;20128;-78
2022/01/24 05:28:21;;;;;;;18.40;10.98;;;4.50;99.90;;;;;;4891874;29;20525;-86
2022/01/24 05:30:48;;;;;;;16.50;10.20;;;4.50;99.90;;;;;;4892124;29;20045;-83
2022/01/24 05:33:14;;;;;;;20.75;11.60;;;4.50;99.90;;;;;;4875745;29;20052;-83
2022/01/24 05:35:39;;;;;;;17.95;10.93;;;4.50;99.90;;;;;;4892293;29;20420;-78
2022/01/24 05:38:06;;;;;;;17.17;10.73;;;4.50;99.90;;;;;;4876545;29;20048;-78
2022/01/24 05:40:32;;;;;;;20.85;11.35;;;4.50;99.90;;;;;;4891808;29;20508;-79
2022/01/24 05:42:58;;;;;;;18.05;10.60;;;4.50;99.90;;;;;;4892210;29;20206;-81
2022/01/24 05:45:24;;;;;;;18.00;11.48;;;4.50;99.90;;;;;;4891903;29;20084;-79
2022/01/24 05:47:50;;;;;;;17.10;10.65;;;4.50;99.90;;;;;;4891926;29;20636;-84
2022/01/24 05:50:16;;;;;;;18.17;10.88;;;4.50;99.90;;;;;;4876967;29;20397;-80
2022/01/24 05:52:42;;;;;;;20.00;11.90;;;4.50;99.90;;;;;;4917611;29;20573;-77
2022/01/24 05:55:08;;;;;;;17.48;11.43;;;4.50;99.90;;;;;;4955127;29;20050;-78
2022/01/24 05:57:35;;;;;;;18.10;10.77;;;4.50;99.90;;;;;;4955054;29;20094;-81
2022/01/24 06:00:01;;;;;;;15.95;10.57;;;4.50;99.90;;;;;;4954859;29;20542;-78
2022/01/24 06:02:26;;;;;;;16.80;10.93;;;4.50;99.90;;;;;;4954874;29;20038;-85
2022/01/24 06:04:52;;;;;;;18.08;10.98;;;4.40;99.90;;;;;;4953228;29;20098;-86
2022/01/24 06:07:18;;;;;;;16.83;10.57;;;4.50;99.90;;;;;;4954812;29;20059;-86
2022/01/24 06:09:43;;;;;;;16.48;10.57;;;4.50;99.90;;;;;;4954411;29;20043;-81
2022/01/24 06:12:10;;;;;;;18.40;11.48;;;4.50;99.90;;;;;;4953585;29;20059;-78
2022/01/24 06:14:36;;;;;;;18.55;11.63;;;4.40;99.90;;;;;;4954476;29;20083;-82
2022/01/24 06:17:02;;;;;;;18.25;11.52;;;4.40;99.90;;;;;;4954785;29;20086;-78
2022/01/24 06:19:28;;;;;;;16.42;10.80;;;4.40;99.90;;;;;;4954269;29;20047;-83
2022/01/24 06:21:54;;;;;;;16.50;10.77;;;4.80;99.90;;;;;;4953666;29;20099;-84
2022/01/24 06:24:20;;;;;;;17.17;10.60;;;4.40;99.90;;;;;;4937084;29;20055;-84
2022/01/24 06:26:46;;;;;;;16.33;11.00;;;4.40;99.90;;;;;;4954279;29;20058;-79
2022/01/24 06:29:12;;;;;;;15.75;10.65;;;4.40;99.90;;;;;;4954136;29;20043;-79
2022/01/24 06:31:38;;;;;;;17.38;11.75;;;4.40;99.90;;;;;;4953771;29;20097;-79
2022/01/24 06:34:05;;;;;;;17.05;10.90;;;4.40;99.90;;;;;;4954233;29;20050;-78
2022/01/24 06:36:31;;;;;;;16.40;10.50;;;4.40;99.90;;;;;;4953910;29;20051;-79
2022/01/24 06:38:56;;;;;;;17.48;10.98;;;4.40;99.90;;;;;;4953703;29;20050;-76
2022/01/24 06:41:28;;;;;;;16.67;10.52;;;4.40;99.90;;;;;;4953506;29;20043;-87
2022/01/24 06:43:54;;;;;;;16.40;11.43;;;4.40;99.90;;;;;;4953771;29;20051;-80
2022/01/24 06:46:19;;;;;;;15.70;10.55;;;4.40;99.90;;;;;;4953886;29;20525;-84
2022/01/24 06:48:45;;;;;;;16.15;10.98;;;4.40;99.90;;;;;;4936805;29;20059;-80
2022/01/24 06:51:11;;;;;;;18.98;11.02;;;4.40;99.90;;;;;;4953939;29;20105;-76
2022/01/24 06:53:37;;;;;;;16.50;10.45;;;4.40;99.90;;;;;;4953724;29;20086;-84
2022/01/24 06:56:05;;;;;;;14.52;9.98;;;4.40;99.90;;;;;;4953953;29;20086;-86
2022/01/24 06:58:32;;;;;;;18.55;10.98;;;4.40;99.90;;;;;;4953828;29;20047;-79
2022/01/24 07:00:59;;;;;;;15.90;10.65;;;4.40;99.90;;;;;;4953752;29;20138;-81
2022/01/24 07:03:24;;;;;;;16.10;10.30;;;4.40;99.90;;;;;;4952656;28;20062;-77
2022/01/24 07:05:50;;;;;;;19.58;11.13;;;4.40;99.90;;;;;;4953586;29;20053;-78
2022/01/24 07:08:16;;;;;;;16.52;10.40;;;4.40;99.90;;;;;;4936275;29;20109;-80
2022/01/24 07:10:41;;;;;;;18.35;11.38;;;4.40;99.90;;;;;;4952681;29;20047;-82
2022/01/24 07:13:07;;;;;;;15.35;9.93;;;4.80;99.90;;;;;;4953666;29;20047;-82
2022/01/24 07:15:37;;;;;;;14.55;10.13;;;4.30;99.90;;;;;;4953201;29;20071;-79
2022/01/24 07:20:35;;;;;;;16.73;10.30;;;4.40;99.90;;;;;;4953585;29;20121;-78
2022/01/24 07:23:02;;;;;;;17.58;10.40;;;4.40;99.90;;;;;;4952322;29;20573;-83
2022/01/24 07:25:28;;;;;;;16.63;10.80;;;4.30;99.90;;;;;;4953210;29;20043;-84
2022/01/24 07:27:54;;;;;;;15.93;10.15;;;4.30;99.90;;;;;;4953075;29;20101;-84
2022/01/24 07:30:19;;;;;;;17.08;11.13;;;4.40;99.90;;;;;;4935761;29;20062;-79
2022/01/24 07:32:45;;;;;;;15.63;10.90;;;4.30;99.90;;;;;;4952980;28;20055;-78
2022/01/24 07:35:11;;;;;;;18.05;10.55;;;4.40;99.90;;;;;;4952989;29;20050;-81
2022/01/24 07:37:36;;;;;;;16.88;10.50;;;4.30;99.90;;;;;;4936052;29;20126;-83
2022/01/24 07:40:06;;;;;;;19.75;11.05;;;4.60;99.90;;;;;;4952559;29;20047;-79
2022/01/24 07:45:17;;;;;;;17.70;11.02;;;4.30;99.90;;;;;;4952761;29;20047;-78
2022/01/24 07:47:44;;;;;;;16.60;10.57;;;4.30;99.90;;;;;;4952840;29;20134;-82
2022/01/24 07:50:11;;;;;;;16.25;10.88;;;4.30;99.90;;;;;;4952755;29;20058;-82
2022/01/24 07:52:37;;;;;;;17.38;11.75;;;4.30;99.90;;;;;;4952878;29;20043;-80
2022/01/24 07:55:03;;;;;;;18.73;11.68;;;4.30;99.90;;;;;;4952706;29;20133;-82
2022/01/24 07:57:29;;;;;;;16.45;11.18;;;4.30;99.90;;;;;;4952921;29;20118;-78
2022/01/24 07:59:54;;;;;;;18.35;11.35;;;4.30;99.90;;;;;;4952536;29;20439;-78
2022/01/24 08:02:20;;;;;;;19.67;12.18;;;4.30;99.90;;;;;;4951942;29;20062;-78
2022/01/24 08:04:46;;;;;;;17.73;11.63;;;4.30;99.90;;;;;;4935713;29;20047;-82
2022/01/24 08:07:11;;;;;;;17.80;11.25;;;4.40;99.90;;;;;;4950960;29;20047;-78
2022/01/24 08:09:37;;;;;;;16.55;10.93;;;4.30;99.90;;;;;;4934989;29;20504;-83
2022/01/24 08:12:05;;;;;;;20.33;11.23;;;4.40;99.90;;;;;;4935125;29;20059;-82
2022/01/24 08:14:31;;;;;;;17.90;11.60;;;4.30;99.90;;;;;;4952046;28;20047;-84
2022/01/24 08:16:56;;;;;;;17.77;11.70;;;4.30;99.90;;;;;;4934636;29;20060;-79
2022/01/24 08:19:22;;;;;;;19.25;12.32;;;4.40;99.90;;;;;;4951238;29;20048;-81
2022/01/24 08:21:47;;;;;;;19.83;13.07;;;4.30;99.90;;;;;;4935243;29;20051;-79
2022/01/24 08:24:13;;;;;;;18.48;12.10;;;4.40;99.90;;;;;;4952387;29;20683;-83
2022/01/24 08:26:39;;;;;;;17.52;11.43;;;4.40;99.90;;;;;;4952211;29;20047;-78
2022/01/24 08:29:06;;;;;;;18.48;12.07;;;4.40;99.90;;;;;;4952261;29;20092;-80
2022/01/24 08:31:32;;;;;;;18.75;12.23;;;4.40;99.90;;;;;;4952198;29;20058;-79
2022/01/24 08:33:58;;;;;;;20.35;11.75;;;4.40;99.90;;;;;;4935223;29;20059;-86
2022/01/24 08:36:24;;;;;;;17.90;12.63;;;4.90;99.90;;;;;;4952185;29;20050;-79
2022/01/24 08:38:51;;;;;;;21.05;14.23;;;4.40;99.90;;;;;;4952354;29;20047;-78
2022/01/24 08:41:26;;;;;;;23.10;14.48;;;4.40;99.90;;;;;;4951647;29;20130;-85
2022/01/24 08:43:59;;;;;;;19.83;12.98;;;4.40;99.90;;;;;;4951640;29;20483;-81
2022/01/24 08:46:25;;;;;;;19.83;13.27;;;4.40;99.90;;;;;;4951773;29;20059;-80
2022/01/24 08:48:51;;;;;;;18.83;12.75;;;4.50;99.90;;;;;;4950666;29;20050;-85
2022/01/24 08:51:17;;;;;;;23.35;13.68;;;4.50;99.90;;;;;;4952043;29;20043;-80
2022/01/24 08:53:43;;;;;;;20.33;13.40;;;4.40;99.90;;;;;;4934807;29;20149;-84
2022/01/24 08:56:11;;;;;;;21.83;14.10;;;4.50;99.90;;;;;;4951975;29;20095;-85
2022/01/24 08:58:37;;;;;;;22.70;14.32;;;5.10;99.90;;;;;;4951709;29;20447;-85
2022/01/24 09:01:04;;;;;;;24.95;15.50;;;4.50;99.90;;;;;;4951358;29;20051;-82
2022/01/24 09:03:35;;;;;;;27.98;15.88;;;5.00;99.90;;;;;;4951820;29;20123;-78
2022/01/24 09:06:01;;;;;;;27.25;17.17;;;4.50;99.90;;;;;;4951885;29;20106;-83
2022/01/24 09:08:27;;;;;;;29.98;18.35;;;4.50;99.90;;;;;;4951810;29;20055;-82
2022/01/24 09:10:53;;;;;;;28.77;16.85;;;4.90;99.90;;;;;;4951604;29;20514;-84
2022/01/24 09:13:19;;;;;;;30.95;18.38;;;4.60;99.90;;;;;;4951715;29;20455;-81
2022/01/24 09:15:46;;;;;;;32.00;18.48;;;4.60;99.90;;;;;;4951937;29;20050;-84
2022/01/24 09:18:11;;;;;;;31.33;18.30;;;4.60;99.90;;;;;;4950384;29;20055;-81
2022/01/24 09:20:38;;;;;;;31.05;17.77;;;4.60;99.90;;;;;;4951533;29;20040;-78
2022/01/24 09:23:06;;;;;;;31.17;17.95;;;4.60;99.90;;;;;;4951954;29;20055;-79
2022/01/24 09:25:31;;;;;;;32.28;19.02;;;5.20;99.90;;;;;;4953048;28;20055;-79
2022/01/24 09:27:57;;;;;;;28.75;18.52;;;4.70;99.90;;;;;;4955511;29;20053;-80
2022/01/24 09:30:24;;;;;;;29.02;17.85;;;5.30;99.90;;;;;;4955813;29;20043;-86
2022/01/24 09:32:51;;;;;;;28.48;18.30;;;4.70;99.90;;;;;;4937179;29;20063;-78
2022/01/24 09:35:17;;;;;;;29.42;17.80;;;4.70;99.90;;;;;;4955493;29;20387;-81
2022/01/24 09:37:46;;;;;;;32.95;19.90;;;4.70;99.90;;;;;;4955264;29;20471;-83
2022/01/24 09:40:14;;;;;;;32.72;20.13;;;4.70;99.90;;;;;;4955141;29;20043;-80
2022/01/24 09:42:42;;;;;;;35.33;19.58;;;4.70;99.90;;;;;;4954591;29;20106;-85
2022/01/24 09:45:09;;;;;;;33.85;21.02;;;4.70;99.90;;;;;;4937970;29;20059;-86
2022/01/24 09:47:35;;;;;;;34.28;20.52;;;4.70;99.90;;;;;;4954715;29;20102;-80
2022/01/24 09:50:00;;;;;;;33.28;19.50;;;4.80;99.90;;;;;;4954753;29;20046;-81
2022/01/24 09:52:28;;;;;;;32.53;20.13;;;4.80;99.90;;;;;;4953567;29;20043;-82
2022/01/24 09:54:53;;;;;;;34.03;20.27;;;4.70;99.90;;;;;;4954633;28;20070;-80
2022/01/24 09:57:19;;;;;;;32.28;19.30;;;4.80;99.90;;;;;;4937118;29;20062;-80
2022/01/24 09:59:44;;;;;;;31.80;19.15;;;4.80;99.90;;;;;;4937237;29;20055;-82
2022/01/24 10:02:10;;;;;;;33.72;20.50;;;4.80;99.90;;;;;;4955086;29;20086;-82
2022/01/24 10:04:36;;;;;;;31.05;18.42;;;4.80;99.90;;;;;;4954860;29;20047;-88
2022/01/24 10:07:02;;;;;;;26.60;16.70;;;4.80;99.90;;;;;;4954625;29;20065;-85
2022/01/24 10:09:37;;;;;;;35.60;18.63;;;4.90;99.90;;;;;;4954635;29;20062;-82
2022/01/24 10:16:24;;;;;;;32.28;19.13;;;4.80;99.90;;;;;;4937405;29;20058;-86
2022/01/24 10:18:08;;;;;;;33.72;20.13;;;5.80;99.90;;;;;;4954354;29;20093;-80
2022/01/24 10:20:43;;;;;;;32.60;19.67;;;4.80;99.90;;;;;;4953024;29;20085;-85
2022/01/24 10:23:13;;;;;;;35.90;20.63;;;4.90;99.90;;;;;;4954274;29;20055;-86
2022/01/24 10:25:50;;;;;;;35.88;20.85;;;4.90;99.90;;;;;;4954462;29;20146;-81
2022/01/24 10:28:26;;;;;;;38.40;21.55;;;4.90;99.90;;;;;;4953932;29;20504;-84
2022/01/24 10:31:19;;;;;;;38.35;21.48;;;4.90;99.90;;;;;;4953135;29;20043;-86
2022/01/24 10:33:52;;;;;;;37.63;20.35;;;4.90;99.90;;;;;;4954015;29;20087;-81
2022/01/24 10:36:39;;;;;;;35.30;20.42;;;4.90;99.90;;;;;;4953812;28;20047;-85
2022/01/24 10:44:35;;;;;;;41.97;21.63;;;5.00;99.90;;;;;;5010614;28;20054;-83
2022/01/24 10:47:15;;;;;;;39.08;22.05;;;5.70;99.90;;;;;;4994390;28;20578;-90
2022/01/24 10:49:42;;;;;;;38.92;21.98;;;5.00;99.90;;;;;;5028767;28;20398;-90
2022/01/24 10:52:19;;;;;;;39.15;22.27;;;5.00;99.90;;;;;;5014161;28;20047;-87
2022/01/24 10:54:47;;;;;;;45.88;24.60;;;5.00;99.90;;;;;;5024382;28;20049;-87
2022/01/24 10:57:29;;;;;;;44.35;24.33;;;5.90;99.90;;;;;;5012186;28;20048;-84
2022/01/24 11:00:08;;;;;;;38.38;22.38;;;5.00;99.90;;;;;;4993865;28;20404;-79
2022/01/24 11:02:41;;;;;;;45.63;24.80;;;5.00;99.90;;;;;;5004241;28;20513;-86
2022/01/24 11:05:46;;;;;;;41.67;24.38;;;5.00;99.90;;;;;;5012049;28;20038;-78
2022/01/24 11:08:17;;;;;;;45.00;25.08;;;5.00;99.90;;;;;;4963059;28;20050;-81
2022/01/24 11:10:44;;;;;;;43.70;24.10;;;5.10;99.90;;;;;;4970047;28;20051;-79
2022/01/24 11:13:11;;;;;;;46.72;25.55;;;5.10;99.90;;;;;;4949493;29;20740;-81
2022/01/24 11:15:41;;;;;;;45.00;24.30;;;5.80;99.90;;;;;;4939388;29;20414;-80
2022/01/24 11:18:09;;;;;;;45.55;26.13;;;5.10;99.90;;;;;;4948093;28;20403;-86
2022/01/24 11:20:40;;;;;;;50.33;28.42;;;5.10;99.90;;;;;;4952187;28;20415;-82
2022/01/24 11:23:06;;;;;;;54.90;29.35;;;5.50;99.90;;;;;;4947772;29;20058;-85
2022/01/24 11:25:35;;;;;;;51.75;28.48;;;5.10;99.90;;;;;;4950139;28;20055;-85
2022/01/24 11:28:01;;;;;;;50.67;28.50;;;5.10;99.90;;;;;;4950174;29;20051;-84
2022/01/24 11:30:34;;;;;;;52.30;28.90;;;5.10;99.90;;;;;;4950095;29;20043;-81
2022/01/24 11:33:04;;;;;;;53.08;28.67;;;5.10;99.90;;;;;;4949432;29;20118;-86
2022/01/24 11:35:44;;;;;;;58.72;29.90;;;5.10;99.90;;;;;;4934405;29;20135;-81
2022/01/24 11:38:33;;;;;;;57.58;31.67;;;5.10;99.90;;;;;;4957516;28;20069;-82
2022/01/24 11:41:03;;;;;;;56.40;30.90;;;5.10;99.90;;;;;;4991628;28;20098;-83
2022/01/24 11:43:33;;;;;;;60.83;31.63;;;5.10;99.90;;;;;;4973124;28;20058;-85
2022/01/24 11:46:06;;;;;;;58.72;32.97;;;5.10;99.90;;;;;;5008182;28;20078;-80
2022/01/24 11:48:34;;;;;;;57.78;32.78;;;5.10;99.90;;;;;;5009314;28;20129;-85
2022/01/24 11:51:11;;;;;;;62.67;32.22;;;5.80;99.90;;;;;;5010562;28;20049;-86
2022/01/24 11:53:41;;;;;;;55.85;32.15;;;5.10;99.90;;;;;;5011132;28;20053;-85
2022/01/24 11:56:26;;;;;;;57.17;31.25;;;5.50;99.90;;;;;;5011138;28;20049;-83
2022/01/24 11:59:17;;;;;;;58.33;32.22;;;5.10;99.90;;;;;;5010388;28;20085;-86
2022/01/24 12:01:45;;;;;;;61.45;33.50;;;5.10;99.90;;;;;;5010769;28;20129;-82
2022/01/24 12:04:11;;;;;;;57.72;33.40;;;5.80;99.90;;;;;;5010752;28;20057;-84
2022/01/24 12:07:16;;;;;;;56.25;32.92;;;5.10;99.90;;;;;;4992538;28;20447;-84
2022/01/24 12:09:42;;;;;;;57.80;32.60;;;5.10;99.90;;;;;;5009626;28;20391;-79
2022/01/24 12:12:47;;;;;;;60.30;33.55;;;5.10;99.90;;;;;;5008458;28;20053;-80
2022/01/24 12:15:38;;;;;;;58.60;30.77;;;5.10;99.90;;;;;;5010756;28;20107;-85
2022/01/24 12:18:08;;;;;;;53.22;30.15;;;5.10;99.90;;;;;;5009800;28;20505;-82
2022/01/24 12:20:37;;;;;;;52.38;28.38;;;5.70;99.90;;;;;;5009865;28;20089;-81
2022/01/24 12:23:24;;;;;;;56.50;29.48;;;5.00;99.90;;;;;;5010304;28;20049;-81
2022/01/24 12:26:05;;;;;;;52.55;28.83;;;5.60;99.90;;;;;;5010469;28;20132;-80
2022/01/24 12:28:34;;;;;;;55.13;29.08;;;5.10;99.90;;;;;;5009581;28;20056;-84
2022/01/24 12:31:02;;;;;;;52.83;30.58;;;5.10;99.90;;;;;;5010147;28;20148;-78
2022/01/24 12:33:44;;;;;;;62.83;32.55;;;5.80;99.90;;;;;;4992569;28;20049;-79
2022/01/24 12:36:13;;;;;;;53.45;29.80;;;5.10;99.90;;;;;;5009424;28;20054;-82
2022/01/24 12:38:50;;;;;;;55.17;29.40;;;5.10;99.90;;;;;;4992272;28;20053;-84
2022/01/24 12:41:38;;;;;;;48.85;28.67;;;5.10;99.90;;;;;;5010036;28;20053;-88
2022/01/24 12:46:32;;;;;;;54.88;28.40;;;5.70;99.90;;;;;;5010091;28;20081;-79
2022/01/24 12:49:00;;;;;;;49.40;27.00;;;5.10;99.90;;;;;;4991740;28;20447;-83
2022/01/24 12:51:28;;;;;;;44.88;25.45;;;6.00;99.90;;;;;;5001589;28;20161;-79
2022/01/24 12:53:55;;;;;;;43.83;24.98;;;5.10;99.90;;;;;;5010083;28;20057;-78
2022/01/24 12:56:26;;;;;;;41.92;23.98;;;5.10;99.90;;;;;;4991024;28;20081;-83
2022/01/24 12:58:52;;;;;;;42.80;24.92;;;5.10;99.90;;;;;;4991549;28;20073;-82
2022/01/24 13:01:27;;;;;;;40.75;24.27;;;5.10;99.90;;;;;;5013561;28;20050;-78
2022/01/24 13:03:58;;;;;;;43.70;24.17;;;5.10;99.90;;;;;;5013903;28;20085;-80
2022/01/24 13:06:32;;;;;;;40.70;24.10;;;5.10;99.90;;;;;;5013614;28;20120;-85
2022/01/24 13:09:25;;;;;;;41.00;24.45;;;5.10;99.90;;;;;;5013594;28;20132;-82
2022/01/24 13:11:56;;;;;;;44.25;24.40;;;5.10;99.90;;;;;;4987726;28;20197;-80
2022/01/24 13:25:06;;;;;;;41.85;22.52;;;5.10;99.90;;;;;;5013778;28;20057;-83
2022/01/24 13:27:36;;;;;;;38.85;22.70;;;5.20;99.90;;;;;;4995122;28;20058;-78
2022/01/24 13:30:05;;;;;;;42.97;24.40;;;5.20;99.90;;;;;;5012681;28;20054;-80
2022/01/24 13:32:47;;;;;;;39.83;22.38;;;5.20;99.90;;;;;;4994754;28;20125;-81
2022/01/24 13:35:27;;;;;;;39.83;23.40;;;5.10;99.90;;;;;;5012726;28;20056;-78
2022/01/24 13:38:21;;;;;;;46.63;25.00;;;5.10;99.90;;;;;;5013677;28;20050;-83
2022/01/24 13:40:57;;;;;;;44.45;24.42;;;5.10;99.90;;;;;;5013309;28;20041;-79
2022/01/24 13:43:36;;;;;;;43.30;25.88;;;5.10;99.90;;;;;;5012712;28;20519;-86
2022/01/24 13:46:10;;;;;;;44.83;24.42;;;5.10;99.90;;;;;;4995604;28;20054;-78
2022/01/24 13:48:47;;;;;;;42.05;23.48;;;5.10;99.90;;;;;;4994881;28;20188;-77
2022/01/24 13:51:22;;;;;;;38.20;21.67;;;5.10;99.90;;;;;;5012706;28;20061;-80
2022/01/24 13:53:53;;;;;;;40.75;22.15;;;5.10;99.90;;;;;;5013184;28;20057;-83
2022/01/24 13:56:24;;;;;;;33.28;19.90;;;5.10;99.90;;;;;;4994291;28;20081;-81
2022/01/24 13:59:11;;;;;;;35.83;21.17;;;5.00;99.90;;;;;;5010779;28;20480;-82
2022/01/24 14:01:56;;;;;;;35.75;20.73;;;5.00;99.90;;;;;;5011238;28;20046;-79
2022/01/24 14:05:02;;;;;;;40.00;21.17;;;5.50;99.90;;;;;;5011099;28;20042;-79
2022/01/24 14:07:41;;;;;;;37.58;20.80;;;5.00;99.90;;;;;;4992384;28;20065;-86
2022/01/24 14:10:13;;;;;;;36.33;20.20;;;5.30;99.90;;;;;;4992780;28;20056;-76
2022/01/24 14:12:44;;;;;;;35.58;20.55;;;5.60;99.90;;;;;;5006320;28;20042;-82
2022/01/24 14:15:20;;;;;;;35.17;20.38;;;5.50;99.90;;;;;;5007886;28;20057;-84
2022/01/24 14:20:42;;;;;;;39.30;20.65;;;5.00;99.90;;;;;;4993361;28;20054;-80
2022/01/24 14:23:35;;;;;;;37.60;20.50;;;5.00;99.90;;;;;;5013785;28;20391;-81
2022/01/24 14:26:15;;;;;;;36.33;21.05;;;5.00;99.90;;;;;;5008407;28;20723;-82
2022/01/24 14:28:41;;;;;;;43.63;24.13;;;4.90;99.90;;;;;;5010739;28;20049;-81
2022/01/24 14:31:13;;;;;;;38.33;22.10;;;4.90;99.90;;;;;;4993000;28;20057;-80
2022/01/24 14:33:40;;;;;;;39.97;23.40;;;4.90;99.90;;;;;;5009987;28;20067;-82
2022/01/24 14:36:16;;;;;;;43.08;24.45;;;4.90;99.90;;;;;;5011377;28;20519;-83
2022/01/24 14:38:57;;;;;;;40.03;23.58;;;4.90;99.90;;;;;;5010747;28;20907;-83
2022/01/24 14:41:44;;;;;;;44.88;23.90;;;5.40;99.90;;;;;;5010281;28;20049;-84
2022/01/24 14:46:57;;;;;;;37.35;21.75;;;4.90;99.90;;;;;;4993010;28;20496;-80
2022/01/24 14:49:26;;;;;;;40.38;22.75;;;4.90;99.90;;;;;;4993445;28;20594;-79
2022/01/24 14:52:02;;;;;;;36.55;21.27;;;4.90;99.90;;;;;;4993837;28;20492;-79
2022/01/24 14:54:30;;;;;;;40.33;22.05;;;4.90;99.90;;;;;;5011921;28;20415;-81
2022/01/24 14:56:59;;;;;;;43.35;23.95;;;5.40;99.90;;;;;;5010921;28;20050;-79
2022/01/24 14:59:26;;;;;;;42.83;23.88;;;4.90;99.90;;;;;;5011860;28;20052;-78
2022/01/24 15:01:52;;;;;;;42.50;24.63;;;4.80;99.90;;;;;;5011160;28;20057;-77
2022/01/24 15:04:18;;;;;;;45.92;25.60;;;5.70;99.90;;;;;;5011738;28;20046;-85
2022/01/24 15:06:45;;;;;;;46.65;25.88;;;4.80;99.90;;;;;;5012059;28;20038;-76